sensor_id;sensor_type;location;lat;lon;timestamp;P1;durP1;ratioP1;P2;durP2;ratioP2
20296;SDS011;10307;40.100;18.336;2023-02-02T00:01:55;31.90;;;21.13;;
20296;SDS011;10307;40.100;18.336;2023-02-02T00:04:24;31.73;;;19.35;;
20296;SDS011;10307;40.100;18.336;2023-02-02T00:06:52;38.33;;;20.05;;
20296;SDS011;10307;40.100;18.336;2023-02-02T00:09:19;39.45;;;20.70;;
20296;SDS011;10307;40.100;18.336;2023-02-02T00:11:46;35.97;;;20.00;;
20296;SDS011;10307;40.100;18.336;2023-02-02T00:14:13;35.58;;;19.77;;
20296;SDS011;10307;40.100;18.336;2023-02-02T00:16:40;32.50;;;20.65;;
20296;SDS011;10307;40.100;18.336;2023-02-02T00:19:10;36.42;;;20.30;;
20296;SDS011;10307;40.100;18.336;2023-02-02T00:21:39;36.40;;;19.77;;
20296;SDS011;10307;40.100;18.336;2023-02-02T00:24:08;33.35;;;20.90;;
20296;SDS011;10307;40.100;18.336;2023-02-02T00:26:36;33.38;;;20.90;;
20296;SDS011;10307;40.100;18.336;2023-02-02T00:29:04;35.05;;;20.35;;
20296;SDS011;10307;40.100;18.336;2023-02-02T00:31:32;31.02;;;19.20;;
20296;SDS011;10307;40.100;18.336;2023-02-02T00:33:59;32.42;;;19.98;;
20296;SDS011;10307;40.100;18.336;2023-02-02T00:36:27;29.00;;;18.85;;
20296;SDS011;10307;40.100;18.336;2023-02-02T00:38:53;29.30;;;17.75;;
20296;SDS011;10307;40.100;18.336;2023-02-02T00:41:20;30.58;;;17.80;;
20296;SDS011;10307;40.100;18.336;2023-02-02T00:43:46;31.58;;;17.00;;
20296;SDS011;10307;40.100;18.336;2023-02-02T00:46:37;24.77;;;15.95;;
20296;SDS011;10307;40.100;18.336;2023-02-02T00:49:05;27.48;;;16.13;;
20296;SDS011;10307;40.100;18.336;2023-02-02T00:51:32;29.52;;;16.20;;
20296;SDS011;10307;40.100;18.336;2023-02-02T00:53:59;29.10;;;15.85;;
20296;SDS011;10307;40.100;18.336;2023-02-02T00:56:25;31.02;;;18.52;;
20296;SDS011;10307;40.100;18.336;2023-02-02T00:58:51;30.77;;;17.80;;
20296;SDS011;10307;40.100;18.336;2023-02-02T01:01:18;28.83;;;16.98;;
20296;SDS011;10307;40.100;18.336;2023-02-02T01:03:49;29.10;;;18.02;;
20296;SDS011;10307;40.100;18.336;2023-02-02T01:06:16;26.63;;;16.27;;
20296;SDS011;10307;40.100;18.336;2023-02-02T01:08:43;33.97;;;16.92;;
20296;SDS011;10307;40.100;18.336;2023-02-02T01:11:09;29.77;;;17.67;;
20296;SDS011;10307;40.100;18.336;2023-02-02T01:13:35;29.10;;;16.15;;
20296;SDS011;10307;40.100;18.336;2023-02-02T01:16:02;26.10;;;15.82;;
20296;SDS011;10307;40.100;18.336;2023-02-02T01:18:29;25.73;;;15.43;;
20296;SDS011;10307;40.100;18.336;2023-02-02T01:21:00;27.00;;;17.65;;
20296;SDS011;10307;40.100;18.336;2023-02-02T01:23:31;33.30;;;16.88;;
20296;SDS011;10307;40.100;18.336;2023-02-02T01:25:59;32.30;;;16.90;;
20296;SDS011;10307;40.100;18.336;2023-02-02T01:28:27;29.02;;;17.02;;
20296;SDS011;10307;40.100;18.336;2023-02-02T01:30:54;33.35;;;17.80;;
20296;SDS011;10307;40.100;18.336;2023-02-02T01:33:22;27.83;;;17.20;;
20296;SDS011;10307;40.100;18.336;2023-02-02T01:36:01;29.27;;;15.70;;
20296;SDS011;10307;40.100;18.336;2023-02-02T01:38:30;25.83;;;15.50;;
20296;SDS011;10307;40.100;18.336;2023-02-02T01:40:56;29.77;;;16.25;;
20296;SDS011;10307;40.100;18.336;2023-02-02T01:46:15;23.83;;;14.13;;
20296;SDS011;10307;40.100;18.336;2023-02-02T01:51:42;23.90;;;13.30;;
20296;SDS011;10307;40.100;18.336;2023-02-02T01:54:13;25.58;;;16.08;;
20296;SDS011;10307;40.100;18.336;2023-02-02T01:56:48;30.40;;;16.08;;
20296;SDS011;10307;40.100;18.336;2023-02-02T01:59:22;32.13;;;17.58;;
20296;SDS011;10307;40.100;18.336;2023-02-02T02:01:49;40.53;;;21.98;;
20296;SDS011;10307;40.100;18.336;2023-02-02T02:04:17;36.67;;;19.40;;
20296;SDS011;10307;40.100;18.336;2023-02-02T02:06:44;38.38;;;19.88;;
20296;SDS011;10307;40.100;18.336;2023-02-02T02:09:11;37.28;;;18.42;;
20296;SDS011;10307;40.100;18.336;2023-02-02T02:11:37;42.78;;;21.55;;
20296;SDS011;10307;40.100;18.336;2023-02-02T02:14:06;34.00;;;18.83;;
20296;SDS011;10307;40.100;18.336;2023-02-02T02:35:01;20.42;;;11.95;;
20296;SDS011;10307;40.100;18.336;2023-02-02T02:37:54;20.13;;;11.85;;
20296;SDS011;10307;40.100;18.336;2023-02-02T02:40:36;22.63;;;12.05;;
20296;SDS011;10307;40.100;18.336;2023-02-02T02:43:18;22.88;;;12.45;;
20296;SDS011;10307;40.100;18.336;2023-02-02T02:46:08;21.40;;;12.35;;
20296;SDS011;10307;40.100;18.336;2023-02-02T02:48:36;23.02;;;12.43;;
20296;SDS011;10307;40.100;18.336;2023-02-02T02:51:33;22.42;;;12.45;;
20296;SDS011;10307;40.100;18.336;2023-02-02T02:54:34;24.30;;;12.60;;
20296;SDS011;10307;40.100;18.336;2023-02-02T03:05:39;21.88;;;11.88;;
20296;SDS011;10307;40.100;18.336;2023-02-02T03:10:58;20.92;;;12.35;;
20296;SDS011;10307;40.100;18.336;2023-02-02T03:13:27;20.38;;;12.00;;
20296;SDS011;10307;40.100;18.336;2023-02-02T03:15:55;26.65;;;14.27;;
20296;SDS011;10307;40.100;18.336;2023-02-02T03:18:21;24.95;;;14.25;;
20296;SDS011;10307;40.100;18.336;2023-02-02T03:20:51;23.13;;;12.45;;
20296;SDS011;10307;40.100;18.336;2023-02-02T03:23:17;19.10;;;11.90;;
20296;SDS011;10307;40.100;18.336;2023-02-02T03:25:44;19.65;;;11.48;;
20296;SDS011;10307;40.100;18.336;2023-02-02T03:28:11;19.50;;;10.50;;
20296;SDS011;10307;40.100;18.336;2023-02-02T03:30:37;20.52;;;10.82;;
20296;SDS011;10307;40.100;18.336;2023-02-02T03:33:06;18.67;;;10.65;;
20296;SDS011;10307;40.100;18.336;2023-02-02T03:35:33;17.08;;;10.57;;
20296;SDS011;10307;40.100;18.336;2023-02-02T03:37:59;20.50;;;11.55;;
20296;SDS011;10307;40.100;18.336;2023-02-02T03:40:26;19.73;;;11.00;;
20296;SDS011;10307;40.100;18.336;2023-02-02T03:42:53;18.33;;;10.30;;
20296;SDS011;10307;40.100;18.336;2023-02-02T03:45:20;15.50;;;9.70;;
20296;SDS011;10307;40.100;18.336;2023-02-02T03:47:46;20.55;;;11.52;;
20296;SDS011;10307;40.100;18.336;2023-02-02T03:50:13;20.17;;;11.02;;
20296;SDS011;10307;40.100;18.336;2023-02-02T03:52:39;17.67;;;10.43;;
20296;SDS011;10307;40.100;18.336;2023-02-02T03:55:06;15.73;;;10.13;;
20296;SDS011;10307;40.100;18.336;2023-02-02T03:57:32;17.92;;;11.77;;
20296;SDS011;10307;40.100;18.336;2023-02-02T03:59:58;23.02;;;14.18;;
20296;SDS011;10307;40.100;18.336;2023-02-02T04:02:24;23.05;;;14.90;;
20296;SDS011;10307;40.100;18.336;2023-02-02T04:04:51;23.23;;;13.02;;
20296;SDS011;10307;40.100;18.336;2023-02-02T04:07:17;19.10;;;11.40;;
20296;SDS011;10307;40.100;18.336;2023-02-02T04:09:43;19.80;;;11.23;;
20296;SDS011;10307;40.100;18.336;2023-02-02T04:12:09;16.90;;;10.15;;
20296;SDS011;10307;40.100;18.336;2023-02-02T04:14:35;18.05;;;11.43;;
20296;SDS011;10307;40.100;18.336;2023-02-02T04:17:02;18.27;;;10.68;;
20296;SDS011;10307;40.100;18.336;2023-02-02T04:19:28;19.85;;;11.20;;
20296;SDS011;10307;40.100;18.336;2023-02-02T04:21:54;14.05;;;9.40;;
20296;SDS011;10307;40.100;18.336;2023-02-02T04:24:20;16.95;;;9.43;;
20296;SDS011;10307;40.100;18.336;2023-02-02T04:26:46;19.65;;;10.00;;
20296;SDS011;10307;40.100;18.336;2023-02-02T04:29:13;17.77;;;10.68;;
20296;SDS011;10307;40.100;18.336;2023-02-02T04:31:39;19.25;;;11.68;;
20296;SDS011;10307;40.100;18.336;2023-02-02T04:34:05;22.60;;;15.07;;
20296;SDS011;10307;40.100;18.336;2023-02-02T04:36:31;31.08;;;19.10;;
20296;SDS011;10307;40.100;18.336;2023-02-02T04:38:57;36.60;;;19.05;;
20296;SDS011;10307;40.100;18.336;2023-02-02T04:41:24;29.45;;;18.95;;
20296;SDS011;10307;40.100;18.336;2023-02-02T04:43:50;32.88;;;18.27;;
20296;SDS011;10307;40.100;18.336;2023-02-02T04:46:16;34.17;;;18.58;;
20296;SDS011;10307;40.100;18.336;2023-02-02T04:48:43;38.05;;;20.83;;
20296;SDS011;10307;40.100;18.336;2023-02-02T04:51:11;45.75;;;23.92;;
20296;SDS011;10307;40.100;18.336;2023-02-02T04:53:39;33.55;;;20.50;;
20296;SDS011;10307;40.100;18.336;2023-02-02T04:56:07;41.47;;;20.73;;
20296;SDS011;10307;40.100;18.336;2023-02-02T04:58:36;32.85;;;20.77;;
20296;SDS011;10307;40.100;18.336;2023-02-02T05:01:16;31.23;;;20.05;;
20296;SDS011;10307;40.100;18.336;2023-02-02T05:03:44;23.70;;;14.88;;
20296;SDS011;10307;40.100;18.336;2023-02-02T05:06:11;22.10;;;13.02;;
20296;SDS011;10307;40.100;18.336;2023-02-02T05:08:38;22.35;;;13.55;;
20296;SDS011;10307;40.100;18.336;2023-02-02T05:11:05;22.90;;;12.32;;
20296;SDS011;10307;40.100;18.336;2023-02-02T05:13:32;23.17;;;12.60;;
20296;SDS011;10307;40.100;18.336;2023-02-02T05:15:59;23.15;;;12.88;;
20296;SDS011;10307;40.100;18.336;2023-02-02T05:18:25;26.83;;;13.43;;
20296;SDS011;10307;40.100;18.336;2023-02-02T05:20:51;24.65;;;13.65;;
20296;SDS011;10307;40.100;18.336;2023-02-02T05:23:19;26.23;;;14.30;;
20296;SDS011;10307;40.100;18.336;2023-02-02T05:25:52;26.80;;;15.30;;
20296;SDS011;10307;40.100;18.336;2023-02-02T05:28:19;23.90;;;14.25;;
20296;SDS011;10307;40.100;18.336;2023-02-02T05:30:47;28.42;;;15.05;;
20296;SDS011;10307;40.100;18.336;2023-02-02T05:33:13;28.50;;;16.23;;
20296;SDS011;10307;40.100;18.336;2023-02-02T05:35:40;28.70;;;16.02;;
20296;SDS011;10307;40.100;18.336;2023-02-02T05:38:06;31.70;;;17.40;;
20296;SDS011;10307;40.100;18.336;2023-02-02T05:40:32;32.53;;;19.33;;
20296;SDS011;10307;40.100;18.336;2023-02-02T05:42:59;27.50;;;15.88;;
20296;SDS011;10307;40.100;18.336;2023-02-02T05:45:25;27.70;;;14.65;;
20296;SDS011;10307;40.100;18.336;2023-02-02T05:47:54;25.45;;;14.75;;
20296;SDS011;10307;40.100;18.336;2023-02-02T05:50:21;22.40;;;14.55;;
20296;SDS011;10307;40.100;18.336;2023-02-02T05:53:00;23.98;;;14.15;;
20296;SDS011;10307;40.100;18.336;2023-02-02T05:55:27;22.20;;;12.93;;
20296;SDS011;10307;40.100;18.336;2023-02-02T05:57:53;24.65;;;14.00;;
20296;SDS011;10307;40.100;18.336;2023-02-02T06:00:21;25.88;;;13.98;;
20296;SDS011;10307;40.100;18.336;2023-02-02T06:02:49;29.38;;;14.75;;
20296;SDS011;10307;40.100;18.336;2023-02-02T06:05:15;27.98;;;14.43;;
20296;SDS011;10307;40.100;18.336;2023-02-02T06:07:42;31.90;;;17.42;;
20296;SDS011;10307;40.100;18.336;2023-02-02T06:10:08;26.25;;;14.90;;
20296;SDS011;10307;40.100;18.336;2023-02-02T06:12:35;41.75;;;21.70;;
20296;SDS011;10307;40.100;18.336;2023-02-02T06:15:01;28.15;;;16.42;;
20296;SDS011;10307;40.100;18.336;2023-02-02T06:17:27;25.95;;;16.65;;
20296;SDS011;10307;40.100;18.336;2023-02-02T06:19:53;31.65;;;16.70;;
20296;SDS011;10307;40.100;18.336;2023-02-02T06:22:20;34.00;;;18.60;;
20296;SDS011;10307;40.100;18.336;2023-02-02T06:24:46;41.33;;;20.73;;
20296;SDS011;10307;40.100;18.336;2023-02-02T06:27:12;37.88;;;20.17;;
20296;SDS011;10307;40.100;18.336;2023-02-02T06:29:38;28.63;;;17.08;;
20296;SDS011;10307;40.100;18.336;2023-02-02T06:32:05;29.98;;;17.23;;
20296;SDS011;10307;40.100;18.336;2023-02-02T06:34:31;30.83;;;17.45;;
20296;SDS011;10307;40.100;18.336;2023-02-02T06:36:57;33.65;;;18.88;;
20296;SDS011;10307;40.100;18.336;2023-02-02T06:39:23;31.40;;;17.92;;
20296;SDS011;10307;40.100;18.336;2023-02-02T06:41:49;40.83;;;21.38;;
20296;SDS011;10307;40.100;18.336;2023-02-02T06:44:16;41.28;;;21.92;;
20296;SDS011;10307;40.100;18.336;2023-02-02T06:46:44;38.05;;;21.10;;
20296;SDS011;10307;40.100;18.336;2023-02-02T06:49:10;34.65;;;19.67;;
20296;SDS011;10307;40.100;18.336;2023-02-02T06:51:36;32.10;;;19.63;;
20296;SDS011;10307;40.100;18.336;2023-02-02T06:54:03;26.55;;;16.00;;
20296;SDS011;10307;40.100;18.336;2023-02-02T06:56:30;23.55;;;13.02;;
20296;SDS011;10307;40.100;18.336;2023-02-02T06:58:56;20.70;;;9.93;;
20296;SDS011;10307;40.100;18.336;2023-02-02T07:01:22;20.08;;;11.35;;
20296;SDS011;10307;40.100;18.336;2023-02-02T07:03:49;29.17;;;12.10;;
20296;SDS011;10307;40.100;18.336;2023-02-02T07:06:16;21.52;;;11.27;;
20296;SDS011;10307;40.100;18.336;2023-02-02T07:08:45;16.48;;;10.02;;
20296;SDS011;10307;40.100;18.336;2023-02-02T07:11:13;23.83;;;10.05;;
20296;SDS011;10307;40.100;18.336;2023-02-02T07:13:39;21.20;;;12.45;;
20296;SDS011;10307;40.100;18.336;2023-02-02T07:16:05;26.05;;;14.35;;
20296;SDS011;10307;40.100;18.336;2023-02-02T07:18:34;24.27;;;16.27;;
20296;SDS011;10307;40.100;18.336;2023-02-02T07:21:04;29.80;;;15.93;;
20296;SDS011;10307;40.100;18.336;2023-02-02T07:23:31;27.10;;;15.77;;
20296;SDS011;10307;40.100;18.336;2023-02-02T07:26:08;25.35;;;13.73;;
20296;SDS011;10307;40.100;18.336;2023-02-02T07:28:35;22.88;;;12.95;;
20296;SDS011;10307;40.100;18.336;2023-02-02T07:31:11;20.17;;;12.02;;
20296;SDS011;10307;40.100;18.336;2023-02-02T07:33:45;19.58;;;11.77;;
20296;SDS011;10307;40.100;18.336;2023-02-02T07:36:13;22.27;;;12.30;;
20296;SDS011;10307;40.100;18.336;2023-02-02T07:38:41;20.40;;;11.80;;
20296;SDS011;10307;40.100;18.336;2023-02-02T07:41:08;21.92;;;11.05;;
20296;SDS011;10307;40.100;18.336;2023-02-02T07:43:34;23.55;;;11.15;;
20296;SDS011;10307;40.100;18.336;2023-02-02T07:46:01;18.05;;;9.70;;
20296;SDS011;10307;40.100;18.336;2023-02-02T07:48:31;17.98;;;9.98;;
20296;SDS011;10307;40.100;18.336;2023-02-02T07:50:58;15.07;;;8.98;;
20296;SDS011;10307;40.100;18.336;2023-02-02T07:53:25;16.67;;;8.00;;
20296;SDS011;10307;40.100;18.336;2023-02-02T07:55:52;16.08;;;7.38;;
20296;SDS011;10307;40.100;18.336;2023-02-02T07:58:18;11.63;;;6.40;;
20296;SDS011;10307;40.100;18.336;2023-02-02T08:00:44;14.27;;;8.35;;
20296;SDS011;10307;40.100;18.336;2023-02-02T08:03:10;17.30;;;8.98;;
20296;SDS011;10307;40.100;18.336;2023-02-02T08:05:37;19.85;;;7.35;;
20296;SDS011;10307;40.100;18.336;2023-02-02T08:08:03;11.30;;;5.78;;
20296;SDS011;10307;40.100;18.336;2023-02-02T08:10:30;14.00;;;5.80;;
20296;SDS011;10307;40.100;18.336;2023-02-02T08:12:56;12.68;;;6.13;;
20296;SDS011;10307;40.100;18.336;2023-02-02T08:15:22;10.68;;;5.55;;
20296;SDS011;10307;40.100;18.336;2023-02-02T08:17:48;12.23;;;4.53;;
20296;SDS011;10307;40.100;18.336;2023-02-02T08:20:15;14.95;;;6.35;;
20296;SDS011;10307;40.100;18.336;2023-02-02T08:22:41;15.77;;;6.15;;
20296;SDS011;10307;40.100;18.336;2023-02-02T08:25:07;14.93;;;5.20;;
20296;SDS011;10307;40.100;18.336;2023-02-02T08:27:33;14.30;;;7.70;;
20296;SDS011;10307;40.100;18.336;2023-02-02T08:30:00;14.02;;;6.25;;
20296;SDS011;10307;40.100;18.336;2023-02-02T08:32:26;12.63;;;5.00;;
20296;SDS011;10307;40.100;18.336;2023-02-02T08:34:52;9.63;;;4.47;;
20296;SDS011;10307;40.100;18.336;2023-02-02T08:37:19;13.65;;;4.47;;
20296;SDS011;10307;40.100;18.336;2023-02-02T08:39:45;13.18;;;4.75;;
20296;SDS011;10307;40.100;18.336;2023-02-02T08:42:11;9.98;;;5.20;;
20296;SDS011;10307;40.100;18.336;2023-02-02T08:44:37;13.63;;;5.93;;
20296;SDS011;10307;40.100;18.336;2023-02-02T08:47:04;14.27;;;5.70;;
20296;SDS011;10307;40.100;18.336;2023-02-02T08:49:30;14.38;;;6.43;;
20296;SDS011;10307;40.100;18.336;2023-02-02T08:51:56;10.07;;;4.60;;
20296;SDS011;10307;40.100;18.336;2023-02-02T08:54:22;12.85;;;5.97;;
20296;SDS011;10307;40.100;18.336;2023-02-02T08:56:48;20.35;;;7.90;;
20296;SDS011;10307;40.100;18.336;2023-02-02T08:59:15;12.00;;;5.00;;
20296;SDS011;10307;40.100;18.336;2023-02-02T09:01:41;13.55;;;5.22;;
20296;SDS011;10307;40.100;18.336;2023-02-02T09:04:11;11.63;;;5.07;;
20296;SDS011;10307;40.100;18.336;2023-02-02T09:06:40;10.00;;;5.15;;
20296;SDS011;10307;40.100;18.336;2023-02-02T09:09:08;14.60;;;6.70;;
20296;SDS011;10307;40.100;18.336;2023-02-02T09:11:38;25.10;;;10.25;;
20296;SDS011;10307;40.100;18.336;2023-02-02T09:14:05;19.15;;;8.00;;
20296;SDS011;10307;40.100;18.336;2023-02-02T09:16:32;15.15;;;6.60;;
20296;SDS011;10307;40.100;18.336;2023-02-02T09:18:59;15.93;;;5.63;;
20296;SDS011;10307;40.100;18.336;2023-02-02T09:21:25;11.20;;;4.95;;
20296;SDS011;10307;40.100;18.336;2023-02-02T09:23:52;13.65;;;4.80;;
20296;SDS011;10307;40.100;18.336;2023-02-02T09:26:20;11.50;;;4.68;;
20296;SDS011;10307;40.100;18.336;2023-02-02T09:28:49;10.43;;;4.38;;
20296;SDS011;10307;40.100;18.336;2023-02-02T09:31:18;13.45;;;4.70;;
20296;SDS011;10307;40.100;18.336;2023-02-02T09:33:44;11.57;;;4.55;;
20296;SDS011;10307;40.100;18.336;2023-02-02T09:36:17;11.63;;;4.47;;
20296;SDS011;10307;40.100;18.336;2023-02-02T09:38:45;9.60;;;4.28;;
20296;SDS011;10307;40.100;18.336;2023-02-02T09:43:56;11.27;;;5.10;;
20296;SDS011;10307;40.100;18.336;2023-02-02T09:50:04;12.48;;;4.20;;
20296;SDS011;10307;40.100;18.336;2023-02-02T09:52:44;12.38;;;5.45;;
20296;SDS011;10307;40.100;18.336;2023-02-02T09:55:24;13.77;;;6.13;;
20296;SDS011;10307;40.100;18.336;2023-02-02T09:58:21;12.07;;;5.63;;
20296;SDS011;10307;40.100;18.336;2023-02-02T10:04:11;8.45;;;3.40;;
20296;SDS011;10307;40.100;18.336;2023-02-02T10:06:41;6.30;;;3.10;;
20296;SDS011;10307;40.100;18.336;2023-02-02T10:09:24;6.28;;;2.38;;
20296;SDS011;10307;40.100;18.336;2023-02-02T10:14:40;8.50;;;3.17;;
20296;SDS011;10307;40.100;18.336;2023-02-02T10:19:47;12.20;;;3.00;;
20296;SDS011;10307;40.100;18.336;2023-02-02T10:22:16;7.50;;;2.90;;
20296;SDS011;10307;40.100;18.336;2023-02-02T10:24:48;8.05;;;3.22;;
20296;SDS011;10307;40.100;18.336;2023-02-02T10:27:15;13.30;;;4.03;;
20296;SDS011;10307;40.100;18.336;2023-02-02T10:29:47;8.40;;;3.60;;
20296;SDS011;10307;40.100;18.336;2023-02-02T10:32:25;11.77;;;3.72;;
20296;SDS011;10307;40.100;18.336;2023-02-02T10:35:01;7.60;;;3.50;;
20296;SDS011;10307;40.100;18.336;2023-02-02T10:40:32;9.60;;;3.10;;
20296;SDS011;10307;40.100;18.336;2023-02-02T10:46:21;9.85;;;4.28;;
20296;SDS011;10307;40.100;18.336;2023-02-02T10:48:53;9.50;;;4.38;;
20296;SDS011;10307;40.100;18.336;2023-02-02T10:51:31;13.88;;;3.63;;
20296;SDS011;10307;40.100;18.336;2023-02-02T10:53:58;13.02;;;5.32;;
20296;SDS011;10307;40.100;18.336;2023-02-02T10:56:30;8.63;;;3.70;;
20296;SDS011;10307;40.100;18.336;2023-02-02T11:01:31;19.17;;;6.63;;
20296;SDS011;10307;40.100;18.336;2023-02-02T11:03:58;21.00;;;11.35;;
20296;SDS011;10307;40.100;18.336;2023-02-02T11:06:43;30.30;;;13.73;;
20296;SDS011;10307;40.100;18.336;2023-02-02T11:15:00;12.77;;;6.75;;
20296;SDS011;10307;40.100;18.336;2023-02-02T11:17:32;12.27;;;4.38;;
20296;SDS011;10307;40.100;18.336;2023-02-02T11:19:59;12.38;;;6.10;;
20296;SDS011;10307;40.100;18.336;2023-02-02T11:22:33;14.25;;;6.22;;
20296;SDS011;10307;40.100;18.336;2023-02-02T11:25:03;17.08;;;6.10;;
20296;SDS011;10307;40.100;18.336;2023-02-02T11:27:38;9.32;;;3.83;;
20296;SDS011;10307;40.100;18.336;2023-02-02T11:32:54;16.48;;;8.85;;
20296;SDS011;10307;40.100;18.336;2023-02-02T11:35:26;11.35;;;4.55;;
20296;SDS011;10307;40.100;18.336;2023-02-02T11:40:38;45.25;;;23.13;;
20296;SDS011;10307;40.100;18.336;2023-02-02T11:43:18;217.50;;;89.47;;
20296;SDS011;10307;40.100;18.336;2023-02-02T11:45:58;211.93;;;96.95;;
20296;SDS011;10307;40.100;18.336;2023-02-02T11:48:37;260.77;;;121.72;;
20296;SDS011;10307;40.100;18.336;2023-02-02T11:51:12;159.90;;;86.68;;
20296;SDS011;10307;40.100;18.336;2023-02-02T11:53:49;64.82;;;39.65;;
20296;SDS011;10307;40.100;18.336;2023-02-02T11:56:25;35.00;;;26.25;;
20296;SDS011;10307;40.100;18.336;2023-02-02T11:58:52;50.20;;;36.38;;
20296;SDS011;10307;40.100;18.336;2023-02-02T12:01:37;10.27;;;4.22;;
20296;SDS011;10307;40.100;18.336;2023-02-02T12:06:43;8.52;;;3.42;;
20296;SDS011;10307;40.100;18.336;2023-02-02T12:09:13;11.55;;;7.68;;
20296;SDS011;10307;40.100;18.336;2023-02-02T12:17:44;10.95;;;4.10;;
20296;SDS011;10307;40.100;18.336;2023-02-02T12:20:20;9.75;;;3.20;;
20296;SDS011;10307;40.100;18.336;2023-02-02T12:26:17;8.52;;;3.72;;
20296;SDS011;10307;40.100;18.336;2023-02-02T12:29:09;7.88;;;3.72;;
20296;SDS011;10307;40.100;18.336;2023-02-02T12:37:02;18.10;;;11.80;;
20296;SDS011;10307;40.100;18.336;2023-02-02T12:42:27;7.55;;;3.25;;
20296;SDS011;10307;40.100;18.336;2023-02-02T12:45:18;9.93;;;3.97;;
20296;SDS011;10307;40.100;18.336;2023-02-02T12:48:04;8.43;;;3.70;;
20296;SDS011;10307;40.100;18.336;2023-02-02T12:56:44;11.80;;;4.53;;
20296;SDS011;10307;40.100;18.336;2023-02-02T13:00:15;13.10;;;8.55;;
20296;SDS011;10307;40.100;18.336;2023-02-02T13:02:37;23.05;;;14.55;;
20296;SDS011;10307;40.100;18.336;2023-02-02T13:05:22;10.75;;;5.35;;
20296;SDS011;10307;40.100;18.336;2023-02-02T13:08:05;11.55;;;3.92;;
20296;SDS011;10307;40.100;18.336;2023-02-02T13:10:36;8.68;;;3.40;;
20296;SDS011;10307;40.100;18.336;2023-02-02T13:13:07;10.00;;;3.50;;
20296;SDS011;10307;40.100;18.336;2023-02-02T13:15:43;8.60;;;3.53;;
20296;SDS011;10307;40.100;18.336;2023-02-02T13:18:17;9.77;;;3.35;;
20296;SDS011;10307;40.100;18.336;2023-02-02T13:20:49;8.10;;;3.17;;
20296;SDS011;10307;40.100;18.336;2023-02-02T13:23:24;7.70;;;3.90;;
20296;SDS011;10307;40.100;18.336;2023-02-02T13:28:34;10.93;;;4.00;;
20296;SDS011;10307;40.100;18.336;2023-02-02T13:31:17;10.52;;;5.78;;
20296;SDS011;10307;40.100;18.336;2023-02-02T13:33:49;9.85;;;4.22;;
20296;SDS011;10307;40.100;18.336;2023-02-02T13:36:31;7.88;;;2.90;;
20296;SDS011;10307;40.100;18.336;2023-02-02T13:39:08;8.18;;;3.35;;
20296;SDS011;10307;40.100;18.336;2023-02-02T13:41:42;9.38;;;4.80;;
20296;SDS011;10307;40.100;18.336;2023-02-02T13:44:44;12.40;;;5.97;;
20296;SDS011;10307;40.100;18.336;2023-02-02T13:47:07;11.88;;;4.80;;
20296;SDS011;10307;40.100;18.336;2023-02-02T13:49:41;11.63;;;5.63;;
20296;SDS011;10307;40.100;18.336;2023-02-02T14:06:07;8.90;;;4.32;;
20296;SDS011;10307;40.100;18.336;2023-02-02T14:08:53;10.10;;;4.10;;
20296;SDS011;10307;40.100;18.336;2023-02-02T14:11:43;11.80;;;3.78;;
20296;SDS011;10307;40.100;18.336;2023-02-02T14:17:06;11.40;;;4.15;;
20296;SDS011;10307;40.100;18.336;2023-02-02T14:19:54;7.60;;;3.20;;
20296;SDS011;10307;40.100;18.336;2023-02-02T14:28:03;10.80;;;3.28;;
20296;SDS011;10307;40.100;18.336;2023-02-02T14:30:36;13.02;;;5.13;;
20296;SDS011;10307;40.100;18.336;2023-02-02T14:33:37;11.38;;;4.07;;
20296;SDS011;10307;40.100;18.336;2023-02-02T14:36:04;7.47;;;3.60;;
20296;SDS011;10307;40.100;18.336;2023-02-02T14:38:58;13.93;;;5.63;;
20296;SDS011;10307;40.100;18.336;2023-02-02T14:41:47;14.52;;;6.93;;
20296;SDS011;10307;40.100;18.336;2023-02-02T14:56:00;14.18;;;7.70;;
20296;SDS011;10307;40.100;18.336;2023-02-02T14:58:29;13.13;;;7.78;;
20296;SDS011;10307;40.100;18.336;2023-02-02T15:01:07;15.75;;;8.82;;
20296;SDS011;10307;40.100;18.336;2023-02-02T15:04:16;16.00;;;8.18;;
20296;SDS011;10307;40.100;18.336;2023-02-02T15:06:46;15.75;;;8.57;;
20296;SDS011;10307;40.100;18.336;2023-02-02T15:14:41;19.52;;;8.02;;
20296;SDS011;10307;40.100;18.336;2023-02-02T15:23:13;39.70;;;18.83;;
20296;SDS011;10307;40.100;18.336;2023-02-02T15:26:11;33.38;;;19.55;;
20296;SDS011;10307;40.100;18.336;2023-02-02T15:28:59;20.85;;;13.45;;
20296;SDS011;10307;40.100;18.336;2023-02-02T15:31:38;23.75;;;14.95;;
20296;SDS011;10307;40.100;18.336;2023-02-02T15:37:22;19.88;;;9.60;;
20296;SDS011;10307;40.100;18.336;2023-02-02T15:39:53;70.40;;;14.65;;
20296;SDS011;10307;40.100;18.336;2023-02-02T15:42:30;30.08;;;12.73;;
20296;SDS011;10307;40.100;18.336;2023-02-02T15:45:34;30.25;;;8.90;;
20296;SDS011;10307;40.100;18.336;2023-02-02T15:48:19;26.02;;;9.20;;
20296;SDS011;10307;40.100;18.336;2023-02-02T15:50:47;20.88;;;8.55;;
20296;SDS011;10307;40.100;18.336;2023-02-02T15:53:26;18.13;;;8.25;;
20296;SDS011;10307;40.100;18.336;2023-02-02T15:55:58;17.65;;;8.95;;
20296;SDS011;10307;40.100;18.336;2023-02-02T15:58:27;49.40;;;29.63;;
20296;SDS011;10307;40.100;18.336;2023-02-02T16:01:00;45.03;;;26.35;;
20296;SDS011;10307;40.100;18.336;2023-02-02T16:03:46;38.83;;;23.48;;
20296;SDS011;10307;40.100;18.336;2023-02-02T16:06:19;48.35;;;28.02;;
20296;SDS011;10307;40.100;18.336;2023-02-02T16:08:45;104.32;;;52.83;;
20296;SDS011;10307;40.100;18.336;2023-02-02T16:11:17;82.50;;;45.42;;
20296;SDS011;10307;40.100;18.336;2023-02-02T16:16:24;43.70;;;26.65;;
20296;SDS011;10307;40.100;18.336;2023-02-02T16:21:51;46.13;;;27.65;;
20296;SDS011;10307;40.100;18.336;2023-02-02T16:24:21;40.90;;;25.98;;
20296;SDS011;10307;40.100;18.336;2023-02-02T16:26:54;51.10;;;31.20;;
20296;SDS011;10307;40.100;18.336;2023-02-02T16:29:23;51.60;;;28.83;;
20296;SDS011;10307;40.100;18.336;2023-02-02T16:31:52;48.83;;;25.25;;
20296;SDS011;10307;40.100;18.336;2023-02-02T16:39:36;42.37;;;27.73;;
20296;SDS011;10307;40.100;18.336;2023-02-02T16:44:49;38.20;;;25.17;;
20296;SDS011;10307;40.100;18.336;2023-02-02T16:49:51;42.60;;;28.30;;
20296;SDS011;10307;40.100;18.336;2023-02-02T16:52:33;43.13;;;25.55;;
20296;SDS011;10307;40.100;18.336;2023-02-02T16:55:14;59.03;;;34.83;;
20296;SDS011;10307;40.100;18.336;2023-02-02T16:57:43;53.75;;;32.08;;
20296;SDS011;10307;40.100;18.336;2023-02-02T17:00:20;50.63;;;29.52;;
20296;SDS011;10307;40.100;18.336;2023-02-02T17:02:56;48.97;;;29.15;;
20296;SDS011;10307;40.100;18.336;2023-02-02T17:05:31;54.83;;;31.27;;
20296;SDS011;10307;40.100;18.336;2023-02-02T17:08:02;64.68;;;38.20;;
20296;SDS011;10307;40.100;18.336;2023-02-02T17:10:34;69.90;;;40.92;;
20296;SDS011;10307;40.100;18.336;2023-02-02T17:16:03;63.83;;;36.30;;
20296;SDS011;10307;40.100;18.336;2023-02-02T17:18:30;74.20;;;41.58;;
20296;SDS011;10307;40.100;18.336;2023-02-02T17:20:56;68.82;;;39.92;;
20296;SDS011;10307;40.100;18.336;2023-02-02T17:23:29;64.60;;;37.40;;